createdAt,value
2023-01-20T00:03:52.240Z,0.72
2023-01-20T00:09:00.485Z,0.70
2023-01-20T00:14:06.979Z,0.69
2023-01-20T00:19:14.583Z,0.67
2023-01-20T00:24:21.023Z,0.64
2023-01-20T00:29:27.204Z,0.64
2023-01-20T00:34:33.663Z,0.65
2023-01-20T00:39:40.004Z,0.63
2023-01-20T00:44:46.492Z,0.60
2023-01-20T00:49:52.993Z,0.60
2023-01-20T00:54:59.280Z,0.59
2023-01-20T01:00:06.835Z,0.57
2023-01-20T01:05:13.179Z,0.58
2023-01-20T01:10:19.962Z,0.59
2023-01-20T01:15:25.917Z,0.58
2023-01-20T01:20:31.788Z,0.57
2023-01-20T01:25:39.161Z,0.55
2023-01-20T01:30:45.071Z,0.56
2023-01-20T01:35:58.225Z,0.56
2023-01-20T01:41:04.771Z,0.52
2023-01-20T01:46:11.061Z,0.52
2023-01-20T01:51:20.152Z,0.55
2023-01-20T01:56:29.284Z,0.54
2023-01-20T02:01:39.812Z,0.51
2023-01-20T02:06:49.831Z,0.51
2023-01-20T02:12:00.621Z,0.53
2023-01-20T02:17:17.530Z,0.53
2023-01-20T02:22:33.189Z,0.51
2023-01-20T02:28:06.608Z,0.57
2023-01-20T02:33:16.623Z,0.62
2023-01-20T02:38:31.026Z,0.64
2023-01-20T02:43:45.610Z,0.68
2023-01-20T02:48:57.207Z,0.72
2023-01-20T02:54:08.698Z,0.75
2023-01-20T02:59:18.384Z,0.76
2023-01-20T03:04:29.991Z,0.76
2023-01-20T03:09:42.168Z,0.78
2023-01-20T03:14:48.137Z,0.79
2023-01-20T03:19:54.395Z,0.78
2023-01-20T03:25:01.503Z,0.76
2023-01-20T03:30:15.111Z,0.75
2023-01-20T03:35:22.706Z,0.72
2023-01-20T03:40:33.824Z,0.70
2023-01-20T03:45:50.021Z,0.69
2023-01-20T03:51:01.799Z,0.75
2023-01-20T03:56:13.244Z,0.79
2023-01-20T04:01:23.760Z,0.77
2023-01-20T04:06:31.580Z,0.78
2023-01-20T04:11:37.960Z,0.80
2023-01-20T04:16:49.895Z,0.82
2023-01-20T04:22:01.723Z,0.82
2023-01-20T04:27:07.778Z,0.82
2023-01-20T04:32:13.999Z,0.86
2023-01-20T04:37:20.124Z,0.88
2023-01-20T04:42:26.391Z,0.89
2023-01-20T04:47:33.851Z,0.93
2023-01-20T04:52:40.267Z,0.99
2023-01-20T04:57:47.593Z,1.03
2023-01-20T05:02:53.733Z,1.02
2023-01-20T05:08:00.205Z,0.98
2023-01-20T05:13:06.327Z,0.95
2023-01-20T05:18:12.524Z,0.94
2023-01-20T05:23:19.166Z,0.92
2023-01-20T05:28:25.283Z,0.88
2023-01-20T05:33:30.964Z,0.86
2023-01-20T05:38:37.565Z,0.88
2023-01-20T05:43:43.575Z,0.87
2023-01-20T05:48:49.340Z,0.87
2023-01-20T05:53:55.531Z,0.89
2023-01-20T05:59:01.891Z,0.98
2023-01-20T06:04:08.850Z,1.01
2023-01-20T06:09:15.061Z,0.99
2023-01-20T06:14:21.556Z,0.97
2023-01-20T06:19:27.872Z,0.97
2023-01-20T06:24:35.554Z,0.99
2023-01-20T06:29:44.289Z,1.00
2023-01-20T06:34:52.962Z,1.02
2023-01-20T06:39:59.138Z,1.10
2023-01-20T06:45:06.396Z,1.14
2023-01-20T06:50:17.896Z,1.16
2023-01-20T06:55:24.074Z,1.15
2023-01-20T07:00:33.702Z,1.21
2023-01-20T07:05:42.136Z,1.28
2023-01-20T07:10:48.428Z,1.29
2023-01-20T07:15:55.849Z,1.31
2023-01-20T07:21:03.071Z,1.32
2023-01-20T07:26:12.001Z,1.33
2023-01-20T07:31:20.753Z,1.36
2023-01-20T07:36:29.060Z,1.36
2023-01-20T07:41:36.544Z,1.43
2023-01-20T07:46:44.666Z,1.47
2023-01-20T07:51:52.071Z,1.49
2023-01-20T07:56:58.902Z,1.49
2023-01-20T08:02:05.892Z,1.50
2023-01-20T08:07:13.117Z,1.61
2023-01-20T08:12:20.050Z,1.67
2023-01-20T08:17:26.485Z,1.69
2023-01-20T08:22:34.347Z,1.66
2023-01-20T08:27:40.777Z,1.77
2023-01-20T08:32:47.538Z,1.94
2023-01-20T08:37:54.158Z,2.08
2023-01-20T08:43:00.983Z,2.19
2023-01-20T08:48:08.976Z,2.34
2023-01-20T08:53:15.373Z,2.47
2023-01-20T08:58:23.021Z,2.57
2023-01-20T09:03:33.105Z,2.61
2023-01-20T09:08:40.731Z,2.69
2023-01-20T09:13:49.048Z,2.86
2023-01-20T09:18:56.106Z,2.90
2023-01-20T09:24:02.269Z,2.83
2023-01-20T09:29:10.807Z,2.76
2023-01-20T09:34:21.509Z,2.69
2023-01-20T09:39:46.745Z,2.61
2023-01-20T09:45:03.653Z,2.56
2023-01-20T09:50:47.489Z,2.51
2023-01-20T09:55:56.771Z,2.55
2023-01-20T10:01:10.957Z,2.56
2023-01-20T10:06:24.869Z,2.56
2023-01-20T10:11:37.328Z,2.49
2023-01-20T10:17:01.040Z,2.43
2023-01-20T10:22:13.509Z,2.46
2023-01-20T10:27:19.733Z,2.49
2023-01-20T10:32:33.437Z,2.53
2023-01-20T10:37:41.013Z,2.61
2023-01-20T10:42:50.500Z,2.85
2023-01-20T10:48:10.087Z,3.02
2023-01-20T10:53:46.827Z,3.10
2023-01-20T10:58:53.511Z,3.06
2023-01-20T11:03:59.650Z,2.95
2023-01-20T11:09:24.376Z,2.88
2023-01-20T11:14:31.396Z,2.84
2023-01-20T11:19:54.100Z,2.77
2023-01-20T11:25:04.405Z,2.74
2023-01-20T11:30:26.687Z,2.68
2023-01-20T11:35:33.113Z,2.70
2023-01-20T11:40:51.491Z,2.74
2023-01-20T11:46:20.796Z,2.76
2023-01-20T11:51:27.819Z,2.67
2023-01-20T11:56:42.103Z,2.60
2023-01-20T12:02:00.435Z,2.61
2023-01-20T12:07:12.057Z,2.58
2023-01-20T12:12:28.403Z,2.47
2023-01-20T12:17:46.429Z,2.32
2023-01-20T12:23:02.989Z,2.23
2023-01-20T12:28:14.357Z,2.22
2023-01-20T12:33:31.099Z,2.28
2023-01-20T12:38:50.588Z,2.25
2023-01-20T12:44:11.737Z,2.17
2023-01-20T12:49:36.176Z,2.12
2023-01-20T12:55:18.140Z,2.12
2023-01-20T13:00:53.725Z,2.21
2023-01-20T13:06:28.235Z,2.41
2023-01-20T13:11:49.885Z,2.55
2023-01-20T13:17:06.905Z,2.54
2023-01-20T13:22:17.273Z,2.56
2023-01-20T13:27:29.526Z,2.59
2023-01-20T13:32:42.004Z,2.59
2023-01-20T13:37:54.556Z,2.50
2023-01-20T13:43:00.865Z,2.39
2023-01-20T13:48:25.139Z,2.30
2023-01-20T13:53:32.124Z,2.29
2023-01-20T13:58:48.330Z,2.23
2023-01-20T14:13:37.384Z,2.04
2023-01-20T14:18:43.544Z,1.97
2023-01-20T14:23:50.096Z,1.81
2023-01-20T14:28:57.965Z,1.70
2023-01-20T14:34:19.160Z,1.62
2023-01-20T14:39:24.519Z,1.55
2023-01-20T14:44:34.892Z,1.52
2023-01-20T14:49:41.666Z,1.43
2023-01-20T14:54:49.695Z,1.38
2023-01-20T15:00:12.235Z,1.36
2023-01-20T15:05:28.080Z,1.36
2023-01-20T15:10:34.358Z,1.36
2023-01-20T15:15:40.335Z,1.32
2023-01-20T15:20:48.818Z,1.28
2023-01-20T15:25:54.854Z,1.30
2023-01-20T15:31:00.813Z,1.28
2023-01-20T15:36:23.379Z,1.27
2023-01-20T15:41:29.152Z,1.26
2023-01-20T15:46:35.888Z,1.26
2023-01-20T15:51:42.761Z,1.20
2023-01-20T15:56:48.500Z,1.20
2023-01-20T16:01:54.535Z,1.21
2023-01-20T16:07:00.443Z,1.16
2023-01-20T16:12:06.780Z,1.04
2023-01-20T16:17:18.108Z,1.01
2023-01-20T16:22:23.884Z,0.95
2023-01-20T16:27:29.910Z,0.87
2023-01-20T16:32:35.631Z,0.85
2023-01-20T16:37:42.230Z,0.73
2023-01-20T16:42:48.336Z,0.66
2023-01-20T16:47:54.812Z,0.65
2023-01-20T16:53:00.951Z,0.64
2023-01-20T16:58:08.626Z,0.58
2023-01-20T17:03:14.409Z,0.54
2023-01-20T17:08:20.113Z,0.55
2023-01-20T17:13:26.032Z,0.55
2023-01-20T17:18:32.042Z,0.57
2023-01-20T17:23:38.098Z,0.61
2023-01-20T17:28:44.001Z,0.62
2023-01-20T17:33:50.778Z,0.66
2023-01-20T17:38:57.730Z,0.67
2023-01-20T17:44:04.055Z,0.69
2023-01-20T17:49:10.062Z,0.71
2023-01-20T17:54:16.419Z,0.76
2023-01-20T17:59:22.252Z,0.78
2023-01-20T18:04:29.453Z,0.79
2023-01-20T18:09:36.079Z,0.80
2023-01-20T18:14:41.873Z,0.79
2023-01-20T18:19:47.801Z,0.76
2023-01-20T18:24:53.751Z,0.81
2023-01-20T18:29:59.579Z,0.85
2023-01-20T18:35:05.920Z,0.82
2023-01-20T18:40:14.596Z,0.78
2023-01-20T18:45:20.781Z,0.76
2023-01-20T18:50:26.588Z,0.78
2023-01-20T18:55:32.405Z,0.79
2023-01-20T19:00:38.285Z,0.77
2023-01-20T19:05:44.337Z,0.80
2023-01-20T19:10:51.030Z,0.87
2023-01-20T19:15:57.397Z,0.87
2023-01-20T19:21:07.130Z,0.88
2023-01-20T19:26:14.658Z,0.87
2023-01-20T19:31:20.538Z,0.91
2023-01-20T19:36:26.675Z,0.95
2023-01-20T19:41:34.654Z,0.92
2023-01-20T19:46:41.037Z,0.91
2023-01-20T19:51:47.911Z,0.92
2023-01-20T19:56:54.516Z,0.89
2023-01-20T20:02:00.475Z,0.86
2023-01-20T20:07:06.473Z,0.88
2023-01-20T20:12:12.281Z,0.92
2023-01-20T20:17:17.998Z,0.91
2023-01-20T20:22:23.967Z,0.98
2023-01-20T20:27:29.877Z,1.02
2023-01-20T20:32:35.633Z,1.00
2023-01-20T20:37:42.110Z,0.98
2023-01-20T20:42:48.665Z,1.00
2023-01-20T20:47:54.589Z,1.00
2023-01-20T20:53:01.070Z,0.95
2023-01-20T20:58:06.822Z,0.93
2023-01-20T21:03:12.599Z,0.92
2023-01-20T21:08:19.400Z,0.88
2023-01-20T21:13:25.219Z,0.85
2023-01-20T21:18:31.872Z,0.83
2023-01-20T21:23:37.969Z,0.77
2023-01-20T21:28:44.576Z,0.73
2023-01-20T21:33:54.631Z,0.69
2023-01-20T21:39:01.359Z,0.68
2023-01-20T21:44:29.853Z,0.72
2023-01-20T21:49:56.150Z,0.76
2023-01-20T21:55:02.686Z,0.73
2023-01-20T22:00:11.588Z,0.71
2023-01-20T22:05:18.487Z,0.69
2023-01-20T22:10:24.187Z,0.69
2023-01-20T22:15:30.087Z,0.68
2023-01-20T22:20:36.283Z,0.67
2023-01-20T22:25:42.263Z,0.63
2023-01-20T22:30:47.978Z,0.64
2023-01-20T22:35:56.972Z,0.65
2023-01-20T22:41:06.376Z,0.64
2023-01-20T22:46:13.981Z,0.66
2023-01-20T22:51:21.810Z,0.65
2023-01-20T22:56:29.528Z,0.61
2023-01-20T23:01:36.217Z,0.60
2023-01-20T23:06:42.201Z,0.62
2023-01-20T23:11:49.623Z,0.64
2023-01-20T23:16:55.396Z,0.59
2023-01-20T23:22:01.385Z,0.61
2023-01-20T23:27:07.957Z,0.60
2023-01-20T23:32:13.812Z,0.58
2023-01-20T23:37:19.536Z,0.56
2023-01-20T23:42:25.509Z,0.52
2023-01-20T23:47:31.300Z,0.48
2023-01-20T23:52:37.165Z,0.47
2023-01-20T23:57:42.910Z,0.49
